Time;durP1;ratioP1;P1;durP2;ratioP2;P2;SDS_P1;SDS_P2;PMS_P1;PMS_P2;Temp;Humidity;BMP_temperature;BMP_pressure;BME280_temperature;BME280_humidity;BME280_pressure;Samples;Min_cycle;Max_cycle;Signal;HPM_P1;HPM_P2
2023/01/08 00:01:05;;;;;;;2.53;2.33;;;;;;;9.70;74.84;99989.06;5012860;28;20615;-78
2023/01/08 00:03:33;;;;;;;2.20;2.00;;;;;;;9.73;74.58;100002.03;5014593;28;20221;-78
2023/01/08 00:06:01;;;;;;;2.30;2.20;;;;;;;9.72;74.27;100001.16;5016857;28;20231;-78
2023/01/08 00:08:27;;;;;;;2.47;2.27;;;;;;;9.77;74.75;100003.66;5017468;28;20222;-78
2023/01/08 00:10:54;;;;;;;2.17;2.07;;;;;;;9.72;75.12;99993.34;5017156;28;20203;-77
2023/01/08 00:13:21;;;;;;;2.20;2.00;;;;;;;9.70;74.46;99991.69;5017674;28;20269;-78
2023/01/08 00:15:47;;;;;;;2.07;1.97;;;;;;;9.76;75.35;99972.44;5017035;28;20230;-78
2023/01/08 00:18:15;;;;;;;2.17;2.00;;;;;;;9.76;74.95;99967.22;5017436;28;20207;-78
2023/01/08 00:20:42;;;;;;;2.10;2.00;;;;;;;9.76;74.87;99964.63;5016476;28;20230;-78
2023/01/08 00:23:10;;;;;;;2.13;1.93;;;;;;;9.81;75.12;99957.53;5016897;28;20195;-78
2023/01/08 00:25:36;;;;;;;2.20;2.00;;;;;;;9.73;75.00;99950.78;5017081;28;20229;-78
2023/01/08 00:28:03;;;;;;;2.20;2.00;;;;;;;9.78;75.45;99931.56;5017104;28;20207;-78
2023/01/08 00:30:29;;;;;;;2.70;2.50;;;;;;;9.70;75.59;99943.00;5016722;28;20743;-78
2023/01/08 00:32:55;;;;;;;2.60;2.40;;;;;;;9.71;75.40;99941.25;5016782;28;20740;-78
2023/01/08 00:35:23;;;;;;;1.93;1.83;;;;;;;9.77;75.53;99942.88;5016701;28;20223;-78
2023/01/08 00:37:50;;;;;;;3.40;2.20;;;;;;;9.74;75.25;99942.03;5016960;28;20211;-78
2023/01/08 00:40:16;;;;;;;2.53;2.33;;;;;;;9.68;75.86;99938.75;5016406;28;20239;-78
2023/01/08 00:42:42;;;;;;;2.53;2.33;;;;;;;9.68;75.72;99941.34;5016699;28;20211;-79
2023/01/08 00:45:10;;;;;;;2.50;2.27;;;;;;;9.62;75.65;99939.72;5016679;28;20258;-78
2023/01/08 00:47:36;;;;;;;2.57;2.37;;;;;;;9.64;75.79;99940.56;5016647;28;20265;-78
2023/01/08 00:50:03;;;;;;;3.57;2.40;;;;;;;9.66;75.97;99932.69;5016781;28;20206;-78
2023/01/08 00:52:31;;;;;;;2.83;2.63;;;;;;;9.70;75.86;99926.53;5016553;28;20268;-78
2023/01/08 00:54:57;;;;;;;2.27;2.17;;;;;;;9.73;75.90;99927.31;5017202;28;20207;-78
2023/01/08 00:57:23;;;;;;;2.30;2.10;;;;;;;9.71;75.71;99926.50;5016705;28;20223;-78
2023/01/08 00:59:49;;;;;;;2.30;2.20;;;;;;;9.70;75.78;99929.13;5016598;28;20652;-77
2023/01/08 01:02:16;;;;;;;2.60;2.40;;;;;;;9.62;75.68;99931.91;5016386;28;20271;-78
2023/01/08 01:04:42;;;;;;;2.57;2.37;;;;;;;9.62;75.88;99933.66;5016798;28;20285;-78
2023/01/08 01:07:08;;;;;;;2.00;1.90;;;;;;;9.69;76.00;99927.41;5016304;28;20227;-78
2023/01/08 01:09:37;;;;;;;2.20;2.10;;;;;;;9.76;76.36;99912.50;5016684;28;20257;-78
2023/01/08 01:12:04;;;;;;;2.60;2.40;;;;;;;9.75;76.25;99890.78;5016202;28;20264;-78
2023/01/08 01:14:30;;;;;;;2.50;2.30;;;;;;;9.82;76.27;99881.91;5016706;28;20210;-78
2023/01/08 01:16:56;;;;;;;2.63;2.17;;;;;;;9.81;76.42;99877.63;5015680;28;20805;-78
2023/01/08 01:19:22;;;;;;;2.30;2.10;;;;;;;9.81;76.18;99876.72;5016812;28;20226;-79
2023/01/08 01:21:49;;;;;;;2.50;2.30;;;;;;;9.79;76.15;99876.78;5015777;28;20261;-78
2023/01/08 01:24:15;;;;;;;2.50;2.30;;;;;;;9.78;75.62;99882.03;5016429;28;20211;-78
2023/01/08 01:26:43;;;;;;;2.83;2.63;;;;;;;9.77;75.92;99881.16;5016042;28;20752;-78
2023/01/08 01:29:09;;;;;;;2.80;2.60;;;;;;;9.72;76.22;99883.03;5016680;28;20207;-78
2023/01/08 01:31:35;;;;;;;2.97;2.70;;;;;;;9.79;75.93;99882.00;5015621;28;20203;-78
2023/01/08 01:34:02;;;;;;;2.73;2.53;;;;;;;9.80;76.07;99882.84;5016138;28;20653;-78
2023/01/08 01:36:28;;;;;;;2.23;2.10;;;;;;;9.84;76.14;99884.50;5015855;28;20757;-78
2023/01/08 01:38:56;;;;;;;2.27;2.10;;;;;;;9.73;75.69;99897.75;5016314;28;20211;-78
2023/01/08 01:41:26;;;;;;;2.43;2.03;;;;;;;9.80;76.08;99901.94;5015263;28;20697;-78
2023/01/08 01:43:55;;;;;;;3.70;3.40;;;;;;;9.81;75.90;99889.75;5016040;28;20202;-79
2023/01/08 01:46:37;;;;;;;2.20;2.10;;;;;;;9.81;75.93;99890.66;5016332;28;20227;-78
2023/01/08 01:49:08;;;;;;;2.33;2.13;;;;;;;9.84;76.20;99887.09;5015797;28;20209;-78
2023/01/08 01:51:36;;;;;;;2.87;2.63;;;;;;;9.89;76.46;99885.22;5014929;28;20199;-79
2023/01/08 01:54:04;;;;;;;2.77;2.57;;;;;;;9.71;76.27;99891.72;5015878;28;20239;-78
2023/01/08 01:56:32;;;;;;;2.90;2.70;;;;;;;9.79;76.09;99888.94;5015371;28;20678;-78
2023/01/08 01:59:00;;;;;;;2.23;2.13;;;;;;;9.89;76.34;99885.22;5015451;28;20701;-78
2023/01/08 02:01:27;;;;;;;2.73;2.53;;;;;;;9.87;76.45;99887.00;5015159;28;20280;-78
2023/01/08 02:03:54;;;;;;;2.67;2.47;;;;;;;9.92;76.07;99888.59;5015717;28;20207;-78
2023/01/08 02:06:33;;;;;;;2.80;2.50;;;;;;;9.96;76.14;99867.69;5015090;28;20224;-78
2023/01/08 02:09:03;;;;;;;2.50;2.30;;;;;;;9.85;76.43;99876.63;5015466;28;20685;-78
2023/01/08 02:11:37;;;;;;;3.20;2.90;;;;;;;9.81;75.58;99867.19;5015011;28;20591;-78
2023/01/08 02:14:12;;;;;;;2.47;2.27;;;;;;;9.89;75.92;99875.66;5015178;28;20202;-78
2023/01/08 02:16:45;;;;;;;2.43;2.23;;;;;;;9.84;75.82;99879.28;5015723;28;20279;-77
2023/01/08 02:19:21;;;;;;;3.80;2.20;;;;;;;9.94;76.15;99883.34;5015870;28;20217;-78
2023/01/08 02:22:02;;;;;;;2.53;2.33;;;;;;;9.89;76.07;99880.00;5013647;28;20273;-78
2023/01/08 02:24:43;;;;;;;2.33;2.23;;;;;;;9.94;76.04;99879.00;5015060;28;20230;-78
2023/01/08 02:27:12;;;;;;;3.40;2.60;;;;;;;9.90;76.50;99877.34;5014892;28;20277;-78
2023/01/08 02:29:39;;;;;;;2.53;2.33;;;;;;;9.94;76.15;99879.00;5014700;28;20207;-77
2023/01/08 02:32:06;;;;;;;3.80;2.10;;;;;;;9.90;76.37;99869.53;5014883;28;20214;-78
2023/01/08 02:34:32;;;;;;;2.53;2.33;;;;;;;9.88;76.45;99862.66;5014692;28;20206;-78
2023/01/08 02:37:00;;;;;;;3.00;2.70;;;;;;;9.88;76.53;99845.25;5014425;28;20783;-79
2023/01/08 02:40:02;;;;;;;2.67;2.43;;;;;;;9.83;76.25;99854.09;5014651;28;20555;-78
2023/01/08 02:42:39;;;;;;;2.50;2.30;;;;;;;9.87;76.63;99848.78;5015087;28;20202;-79
2023/01/08 02:45:15;;;;;;;2.63;2.43;;;;;;;9.79;76.98;99836.81;5014499;28;20210;-79
2023/01/08 02:47:45;;;;;;;3.30;2.30;;;;;;;9.75;77.48;99830.81;5014537;28;20207;-78
2023/01/08 02:50:19;;;;;;;2.50;2.30;;;;;;;9.83;77.29;99822.81;5014510;28;20662;-78
2023/01/08 02:52:55;;;;;;;2.97;2.77;;;;;;;9.79;77.50;99816.84;5013827;28;20213;-78
2023/01/08 02:55:24;;;;;;;2.83;2.63;;;;;;;9.71;77.27;99809.22;5014370;28;20250;-78
2023/01/08 02:57:53;;;;;;;2.60;2.40;;;;;;;9.77;77.45;99815.16;5014502;28;20215;-78
2023/01/08 03:00:21;;;;;;;2.60;2.40;;;;;;;9.74;77.19;99808.28;5013974;28;20280;-78
2023/01/08 03:02:51;;;;;;;2.70;2.50;;;;;;;9.83;77.75;99815.88;5014332;28;20207;-79
2023/01/08 03:05:23;;;;;;;2.67;2.47;;;;;;;9.85;77.58;99814.09;5014517;28;20203;-78
2023/01/08 03:07:50;;;;;;;2.80;2.60;;;;;;;9.84;77.61;99814.13;5014476;28;20218;-78
2023/01/08 03:10:18;;;;;;;3.00;2.70;;;;;;;9.91;77.82;99813.91;5014250;28;20206;-77
2023/01/08 03:12:50;;;;;;;3.00;2.67;;;;;;;9.90;77.58;99811.34;5014075;28;20230;-78
2023/01/08 03:15:25;;;;;;;2.40;2.20;;;;;;;9.90;77.71;99819.16;5014088;28;20210;-78
2023/01/08 03:17:57;;;;;;;3.60;2.83;;;;;;;9.92;78.34;99801.72;5014311;28;20755;-78
2023/01/08 03:20:25;;;;;;;2.90;2.67;;;;;;;9.87;77.38;99819.22;5013545;28;20230;-78
2023/01/08 03:22:55;;;;;;;2.50;2.30;;;;;;;9.91;77.32;99823.47;5013878;28;20202;-78
2023/01/08 03:25:24;;;;;;;2.90;2.63;;;;;;;9.99;77.28;99818.06;5014072;28;20636;-78
2023/01/08 03:27:54;;;;;;;2.60;2.40;;;;;;;10.04;77.28;99816.19;5013700;28;20217;-78
2023/01/08 03:30:24;;;;;;;2.80;2.60;;;;;;;10.03;77.34;99807.53;5013336;28;20210;-78
2023/01/08 03:32:52;;;;;;;2.77;2.57;;;;;;;10.03;77.46;99804.03;5013852;28;20211;-78
2023/01/08 03:35:23;;;;;;;2.97;2.60;;;;;;;10.08;77.66;99799.56;5013475;28;20205;-78
2023/01/08 03:37:55;;;;;;;2.30;2.20;;;;;;;10.06;77.40;99793.53;5013345;28;20267;-78
2023/01/08 03:40:25;;;;;;;2.30;2.10;;;;;;;10.08;77.50;99792.59;5013035;28;20226;-78
2023/01/08 03:42:52;;;;;;;2.80;2.53;;;;;;;10.04;77.76;99777.94;5013674;28;20207;-78
2023/01/08 03:45:19;;;;;;;2.50;2.30;;;;;;;10.09;78.10;99765.63;5013620;28;20211;-78
2023/01/08 03:47:47;;;;;;;2.57;2.37;;;;;;;10.15;78.22;99759.38;5013799;28;20213;-79
2023/01/08 03:50:17;;;;;;;2.77;2.57;;;;;;;9.93;77.98;99762.59;5013227;28;20202;-78
2023/01/08 03:52:44;;;;;;;2.60;2.13;;;;;;;10.02;78.19;99747.59;5013247;28;20902;-78
2023/01/08 03:55:10;;;;;;;2.90;2.70;;;;;;;10.01;78.85;99745.84;5013624;28;20207;-78
2023/01/08 03:57:36;;;;;;;2.93;2.73;;;;;;;10.08;78.66;99724.78;5014060;28;20260;-78
2023/01/08 04:00:05;;;;;;;2.47;2.27;;;;;;;10.12;78.12;99730.78;5013277;28;20210;-78
2023/01/08 04:02:31;;;;;;;3.47;2.23;;;;;;;10.14;78.78;99727.22;5013459;28;20207;-78
2023/01/08 04:04:59;;;;;;;2.37;2.27;;;;;;;10.12;78.94;99728.16;5013451;28;20208;-78
2023/01/08 04:07:25;;;;;;;2.27;2.07;;;;;;;10.09;78.89;99734.34;5012904;28;20277;-77
2023/01/08 04:09:51;;;;;;;2.27;2.10;;;;;;;10.09;78.92;99726.50;5013130;28;20210;-78
2023/01/08 04:12:18;;;;;;;2.20;1.90;;;;;;;10.14;79.18;99726.38;5013642;28;20199;-78
2023/01/08 04:14:44;;;;;;;2.60;2.40;;;;;;;10.08;78.89;99709.16;5013402;28;20253;-75
2023/01/08 04:17:11;;;;;;;2.30;2.20;;;;;;;10.09;79.70;99707.41;5012444;28;20255;-78
2023/01/08 04:19:38;;;;;;;2.40;2.27;;;;;;;10.04;80.24;99681.44;5012080;28;20208;-77
2023/01/08 04:22:06;;;;;;;2.47;2.27;;;;;;;9.99;80.22;99675.53;5011324;28;20225;-78
2023/01/08 04:24:32;;;;;;;2.17;2.07;;;;;;;10.02;80.51;99651.97;5012385;28;20207;-78
2023/01/08 04:26:58;;;;;;;3.07;2.10;;;;;;;10.03;80.31;99650.19;5012427;28;20273;-78
2023/01/08 04:29:25;;;;;;;2.47;2.23;;;;;;;9.97;81.27;99633.00;5012468;28;20207;-78
2023/01/08 04:31:51;;;;;;;2.23;2.13;;;;;;;9.99;81.24;99614.69;5011829;28;20199;-78
2023/01/08 04:34:17;;;;;;;2.17;2.07;;;;;;;10.05;81.50;99602.34;5012300;28;20206;-78
2023/01/08 04:36:44;;;;;;;4.10;2.33;;;;;;;10.05;81.44;99594.53;5011631;28;20240;-78
2023/01/08 04:39:11;;;;;;;2.20;2.00;;;;;;;10.07;81.32;99587.50;5012496;28;20216;-78
2023/01/08 04:41:38;;;;;;;2.60;2.40;;;;;;;10.06;80.69;99593.59;5011926;28;20222;-78
2023/01/08 04:44:04;;;;;;;1.90;1.80;;;;;;;10.07;81.29;99590.09;5012349;28;20208;-78
2023/01/08 04:46:31;;;;;;;1.83;1.73;;;;;;;10.07;81.78;99589.28;5012449;28;20227;-78
2023/01/08 04:48:57;;;;;;;2.63;2.20;;;;;;;10.06;81.35;99596.22;5012066;28;20207;-78
2023/01/08 04:51:25;;;;;;;2.50;2.30;;;;;;;10.06;81.15;99621.44;5013751;28;20203;-78
2023/01/08 04:53:51;;;;;;;2.33;2.13;;;;;;;9.98;81.18;99607.78;5015883;28;20211;-78
2023/01/08 04:56:19;;;;;;;2.80;2.50;;;;;;;10.00;80.53;99609.44;5015926;28;20226;-78
2023/01/08 04:58:45;;;;;;;2.53;2.33;;;;;;;10.00;80.36;99626.84;5015740;28;20203;-78
2023/01/08 05:01:14;;;;;;;2.30;2.10;;;;;;;9.96;80.48;99631.28;5015508;28;20222;-78
2023/01/08 05:03:40;;;;;;;2.60;2.40;;;;;;;10.02;80.64;99615.47;5015375;28;20203;-78
2023/01/08 05:06:07;;;;;;;3.73;2.53;;;;;;;9.89;81.56;99599.34;5015632;28;20234;-78
2023/01/08 05:08:34;;;;;;;2.30;2.17;;;;;;;9.82;81.23;99603.00;5015419;28;20207;-77
2023/01/08 05:11:00;;;;;;;2.57;2.37;;;;;;;9.87;81.24;99603.75;5015601;28;20241;-78
2023/01/08 05:13:28;;;;;;;3.30;3.00;;;;;;;9.96;81.10;99601.75;5015520;28;20211;-78
2023/01/08 05:15:58;;;;;;;3.13;2.93;;;;;;;9.94;81.37;99597.44;5015442;28;20237;-78
2023/01/08 05:18:24;;;;;;;3.07;2.53;;;;;;;9.97;81.00;99606.94;5015067;28;20211;-78
2023/01/08 05:20:50;;;;;;;2.70;2.50;;;;;;;9.94;80.92;99613.06;5015038;28;20224;-77
2023/01/08 05:23:17;;;;;;;2.70;2.50;;;;;;;9.91;81.55;99600.16;5015143;28;20585;-78
2023/01/08 05:25:43;;;;;;;2.80;2.50;;;;;;;9.96;81.57;99594.78;5015515;28;20353;-78
2023/01/08 05:28:09;;;;;;;2.23;2.13;;;;;;;9.84;82.72;99576.91;5015308;28;20213;-78
2023/01/08 05:30:37;;;;;;;2.37;2.17;;;;;;;9.88;82.88;99560.28;5042699;22;20230;-80
2023/01/08 05:33:03;;;;;;;2.50;2.30;;;;;;;9.89;83.12;99539.38;5057342;28;20263;-79
2023/01/08 05:35:30;;;;;;;2.70;2.50;;;;;;;9.82;83.30;99530.03;5057528;28;20256;-79
2023/01/08 05:37:59;;;;;;;2.80;2.60;;;;;;;9.86;83.91;99525.59;5057361;28;20577;-79
2023/01/08 05:40:26;;;;;;;2.60;2.40;;;;;;;9.86;84.30;99509.94;5057541;28;20284;-79
2023/01/08 05:42:52;;;;;;;2.83;2.63;;;;;;;9.92;84.17;99504.53;5057686;28;20205;-80
2023/01/08 05:45:18;;;;;;;2.57;2.47;;;;;;;9.90;84.60;99493.31;5062250;28;20201;-80
2023/01/08 05:47:46;;;;;;;2.80;2.60;;;;;;;9.93;84.75;99478.44;5068664;28;20225;-80
2023/01/08 05:50:12;;;;;;;3.10;2.90;;;;;;;9.94;85.12;99479.28;5077299;28;20255;-79
2023/01/08 05:52:38;;;;;;;3.17;2.97;;;;;;;9.74;85.17;99469.47;5077640;28;20205;-80
2023/01/08 05:55:06;;;;;;;3.33;3.03;;;;;;;9.79;85.58;99462.38;5073158;28;20208;-80
2023/01/08 05:57:32;;;;;;;3.00;2.80;;;;;;;9.76;86.39;99448.59;5077697;28;20733;-81
2023/01/08 05:59:58;;;;;;;3.47;3.17;;;;;;;9.82;86.44;99427.53;5079079;28;20220;-81
2023/01/08 06:02:25;;;;;;;4.07;3.67;;;;;;;9.82;86.16;99437.97;5076261;28;20228;-80
2023/01/08 06:04:52;;;;;;;2.67;2.47;;;;;;;9.84;86.31;99433.56;5076507;28;20204;-81
2023/01/08 06:07:19;;;;;;;3.17;2.97;;;;;;;9.82;86.74;99430.16;5076759;28;20205;-81
2023/01/08 06:09:45;;;;;;;3.00;2.80;;;;;;;9.76;86.70;99419.94;5076459;28;20278;-81
2023/01/08 06:12:11;;;;;;;4.03;3.20;;;;;;;9.78;86.63;99423.34;5076429;28;20205;-80
2023/01/08 06:14:38;;;;;;;3.50;3.20;;;;;;;9.79;87.15;99419.81;5076742;28;20223;-81
2023/01/08 06:17:04;;;;;;;3.40;3.20;;;;;;;9.71;86.87;99414.84;5076269;28;20205;-79
2023/01/08 06:19:30;;;;;;;3.27;3.07;;;;;;;9.50;88.58;99385.13;5075962;28;20278;-79
2023/01/08 06:21:58;;;;;;;3.10;2.80;;;;;;;9.60;88.45;99375.28;5075775;28;20220;-80
2023/01/08 06:24:24;;;;;;;3.40;3.10;;;;;;;9.61;88.60;99364.78;5073495;28;20209;-79
2023/01/08 06:26:50;;;;;;;3.10;2.90;;;;;;;9.58;88.92;99356.22;5067481;28;20246;-79
2023/01/08 06:29:17;;;;;;;3.37;3.07;;;;;;;9.60;89.04;99346.63;5076541;28;20201;-80
2023/01/08 06:31:43;;;;;;;3.63;3.33;;;;;;;9.55;89.57;99344.13;5075836;28;20208;-81
2023/01/08 06:34:11;;;;;;;3.43;3.13;;;;;;;9.57;89.76;99326.69;5076111;28;20231;-79
2023/01/08 06:36:37;;;;;;;3.53;3.23;;;;;;;9.51;90.01;99319.09;5075998;28;20209;-80
2023/01/08 06:39:06;;;;;;;3.57;3.27;;;;;;;9.43;90.08;99326.31;5076376;28;20205;-79
2023/01/08 06:41:32;;;;;;;3.43;3.23;;;;;;;9.48;90.51;99320.03;5075376;28;20297;-80
2023/01/08 06:43:59;;;;;;;3.20;3.00;;;;;;;9.53;90.32;99323.38;5076204;28;20205;-80
2023/01/08 06:46:25;;;;;;;4.67;3.70;;;;;;;9.58;90.48;99319.75;5076079;28;20205;-80
2023/01/08 06:48:52;;;;;;;3.87;3.57;;;;;;;9.56;90.68;99325.00;5075711;28;20201;-79
2023/01/08 06:51:18;;;;;;;3.47;3.17;;;;;;;9.59;90.74;99311.88;5075690;28;20266;-79
2023/01/08 06:53:47;;;;;;;3.90;3.33;;;;;;;9.63;90.25;99334.34;5075824;28;20227;-78
2023/01/08 06:56:15;;;;;;;3.37;3.17;;;;;;;9.66;90.41;99341.19;5064101;28;20201;-80
2023/01/08 06:58:41;;;;;;;3.63;3.33;;;;;;;9.61;91.09;99328.31;5057860;28;20197;-77
2023/01/08 07:01:13;;;;;;;3.67;3.37;;;;;;;9.49;92.00;99308.75;5055104;28;20251;-78
2023/01/08 07:03:39;;;;;;;3.70;3.40;;;;;;;9.49;92.70;99302.66;5055855;28;20254;-79
2023/01/08 07:06:06;;;;;;;3.83;3.53;;;;;;;9.52;93.11;99282.56;5055446;28;20586;-80
2023/01/08 07:08:32;;;;;;;3.80;3.50;;;;;;;9.60;92.88;99281.47;5055461;28;20209;-81
2023/01/08 07:11:02;;;;;;;4.37;3.30;;;;;;;9.65;92.51;99298.66;5055151;28;20291;-81
2023/01/08 07:13:29;;;;;;;3.53;3.23;;;;;;;9.56;93.80;99278.13;5054019;28;20209;-79
2023/01/08 07:15:56;;;;;;;4.10;3.80;;;;;;;9.61;93.50;99270.97;5055425;28;20603;-80
2023/01/08 07:18:22;;;;;;;3.70;3.37;;;;;;;9.60;94.22;99265.84;5054781;28;20209;-81
2023/01/08 07:20:49;;;;;;;4.53;4.13;;;;;;;9.60;94.20;99264.09;5054985;28;20225;-79
2023/01/08 07:23:15;;;;;;;4.00;3.70;;;;;;;9.48;95.63;99246.28;5054727;28;20226;-80
2023/01/08 07:25:41;;;;;;;3.50;3.23;;;;;;;9.49;95.67;99238.41;5062920;28;20691;-79
2023/01/08 07:28:11;;;;;;;3.63;3.33;;;;;;;9.41;96.34;99218.72;5068780;28;20254;-81
2023/01/08 07:30:39;;;;;;;3.43;3.13;;;;;;;9.46;96.63;99215.06;5074298;28;20710;-80
2023/01/08 07:33:05;;;;;;;3.40;3.10;;;;;;;9.52;96.64;99222.66;5074999;28;20243;-78
2023/01/08 07:35:31;;;;;;;3.40;3.20;;;;;;;9.58;96.12;99234.63;5075076;28;20205;-79
2023/01/08 07:37:58;;;;;;;4.10;3.80;;;;;;;9.57;96.13;99247.69;5075051;28;20205;-80
2023/01/08 07:40:24;;;;;;;3.20;3.00;;;;;;;9.51;97.12;99239.22;5074447;28;20274;-80
2023/01/08 07:42:57;;;;;;;3.10;2.90;;;;;;;9.46;97.72;99235.91;5074904;28;20228;-81
2023/01/08 07:45:23;;;;;;;2.90;2.70;;;;;;;9.50;97.51;99232.28;5074792;28;20204;-81
2023/01/08 07:47:51;;;;;;;3.10;2.90;;;;;;;9.58;97.11;99237.22;5075884;28;20205;-79
2023/01/08 07:50:17;;;;;;;3.23;3.03;;;;;;;9.61;96.92;99242.31;5075093;28;20225;-80
2023/01/08 07:52:44;;;;;;;3.20;3.00;;;;;;;9.53;97.38;99240.00;5076000;28;20553;-81
2023/01/08 07:55:10;;;;;;;2.87;2.67;;;;;;;9.34;98.64;99221.53;5072225;28;20658;-80
2023/01/08 07:57:36;;;;;;;2.50;2.30;;;;;;;9.37;98.91;99212.75;5067319;28;20270;-78
2023/01/08 08:00:03;;;;;;;2.77;2.57;;;;;;;9.46;98.85;99206.41;5075732;28;20227;-80
2023/01/08 08:02:29;;;;;;;3.20;3.00;;;;;;;9.51;98.42;99215.75;5076149;28;20772;-80
2023/01/08 08:04:57;;;;;;;3.17;2.97;;;;;;;9.53;98.52;99226.97;5075976;28;20262;-79
2023/01/08 08:07:23;;;;;;;2.87;2.67;;;;;;;9.56;98.20;99233.00;5075895;28;20258;-78
2023/01/08 08:09:50;;;;;;;3.03;2.83;;;;;;;9.58;98.24;99234.63;5075312;28;20224;-79
2023/01/08 08:12:16;;;;;;;2.63;2.43;;;;;;;9.66;97.83;99242.19;5075124;28;20223;-79
2023/01/08 08:14:42;;;;;;;2.60;2.40;;;;;;;9.66;97.69;99250.00;5075732;28;20210;-79
2023/01/08 08:17:09;;;;;;;3.17;2.97;;;;;;;9.55;98.29;99226.91;5075908;28;20205;-80
2023/01/08 08:19:35;;;;;;;2.40;2.30;;;;;;;9.59;98.61;99225.06;5075758;28;20229;-78
2023/01/08 08:22:03;;;;;;;2.87;2.67;;;;;;;9.60;98.79;99226.78;5075107;28;20236;-79
2023/01/08 08:24:29;;;;;;;2.70;2.57;;;;;;;9.47;99.55;99213.28;5072062;28;20737;-81
2023/01/08 08:26:55;;;;;;;2.40;2.30;;;;;;;9.57;99.51;99213.84;5071474;28;20255;-79
2023/01/08 08:29:21;;;;;;;2.57;2.37;;;;;;;9.56;99.43;99207.78;5080543;28;20209;-79
2023/01/08 08:31:48;;;;;;;2.23;2.03;;;;;;;9.62;99.11;99218.00;5058889;28;20217;-78
2023/01/08 08:34:14;;;;;;;2.23;2.13;;;;;;;9.63;98.93;99230.13;5060753;28;20205;-79
2023/01/08 08:36:40;;;;;;;2.40;2.20;;;;;;;9.63;99.51;99240.53;5066407;28;20254;-81
2023/01/08 08:39:08;;;;;;;2.30;2.20;;;;;;;9.48;99.65;99235.84;5071813;28;20202;-81
2023/01/08 08:41:35;;;;;;;2.33;2.23;;;;;;;9.57;100.00;99226.84;5071755;28;20850;-80
2023/01/08 08:44:02;;;;;;;1.80;1.70;;;;;;;9.57;99.66;99234.69;5060329;28;20228;-79
2023/01/08 08:46:28;;;;;;;2.30;2.20;;;;;;;9.68;98.80;99241.22;5058931;28;20676;-79
2023/01/08 08:48:55;;;;;;;2.63;2.43;;;;;;;9.72;98.72;99239.38;5060322;28;20199;-80
2023/01/08 08:51:21;;;;;;;2.03;1.93;;;;;;;9.77;98.76;99236.59;5058881;28;20221;-79
2023/01/08 08:53:47;;;;;;;2.23;2.13;;;;;;;9.81;98.69;99235.56;5058628;28;20257;-79
2023/01/08 08:56:15;;;;;;;2.13;2.03;;;;;;;9.86;98.59;99224.09;5067828;28;20285;-81
2023/01/08 08:58:41;;;;;;;2.50;2.30;;;;;;;9.89;97.84;99247.44;5078020;28;20205;-78
2023/01/08 09:01:08;;;;;;;1.80;1.70;;;;;;;9.79;97.33;99235.66;5078641;28;20815;-80
2023/01/08 09:03:34;;;;;;;1.90;1.80;;;;;;;9.78;97.62;99240.91;5078148;28;20258;-80
2023/01/08 09:06:01;;;;;;;2.17;2.07;;;;;;;9.79;98.04;99234.78;5079263;28;20209;-80
2023/01/08 09:08:27;;;;;;;2.30;2.20;;;;;;;9.78;97.95;99239.16;5077771;28;20239;-79
2023/01/08 09:10:53;;;;;;;1.70;1.60;;;;;;;9.85;98.16;99240.66;5077093;28;20259;-78
2023/01/08 09:13:21;;;;;;;2.07;1.93;;;;;;;9.90;98.16;99243.06;5078311;28;20205;-80
2023/01/08 09:15:47;;;;;;;1.70;1.60;;;;;;;10.00;97.24;99257.47;5078617;28;20555;-80
2023/01/08 09:18:14;;;;;;;1.73;1.63;;;;;;;9.96;97.13;99265.47;5078764;28;20266;-80
2023/01/08 09:20:40;;;;;;;1.50;1.40;;;;;;;9.99;96.94;99258.41;5078221;28;20250;-79
2023/01/08 09:23:06;;;;;;;1.90;1.80;;;;;;;10.06;96.77;99265.09;5078962;28;20480;-79
2023/01/08 09:25:33;;;;;;;1.70;1.60;;;;;;;10.08;96.37;99283.28;5074378;28;20549;-79
2023/01/08 09:28:00;;;;;;;1.37;1.27;;;;;;;10.16;96.33;99281.25;5070642;28;20761;-79
2023/01/08 09:30:28;;;;;;;1.60;1.50;;;;;;;10.04;94.89;99303.41;5077440;28;20359;-80
2023/01/08 09:32:56;;;;;;;2.10;1.30;;;;;;;10.13;96.39;99302.25;5077201;28;20606;-80
2023/01/08 09:35:23;;;;;;;1.57;1.47;;;;;;;10.03;96.41;99293.00;5077475;28;20570;-79
2023/01/08 09:37:50;;;;;;;1.27;1.23;;;;;;;10.15;98.13;99266.53;5076503;28;20224;-80
2023/01/08 09:40:17;;;;;;;1.83;1.33;;;;;;;10.16;96.57;99265.59;5076433;28;20614;-80
2023/01/08 09:42:44;;;;;;;1.30;1.20;;;;;;;10.30;95.97;99294.66;5077065;28;20222;-78
2023/01/08 09:45:21;;;;;;;1.17;1.07;;;;;;;10.48;96.42;99284.47;5077209;28;20608;-79
2023/01/08 09:47:49;;;;;;;1.80;1.27;;;;;;;10.49;94.26;99312.28;5077351;28;20200;-79
2023/01/08 09:50:15;;;;;;;1.50;1.40;;;;;;;10.32;93.27;99349.41;5076253;28;20228;-78
2023/01/08 09:52:42;;;;;;;1.50;1.20;;;;;;;10.37;93.19;99377.94;5077395;28;20201;-79
2023/01/08 09:55:12;;;;;;;1.70;1.60;;;;;;;10.47;93.93;99345.41;5073174;28;20820;-79
2023/01/08 09:57:39;;;;;;;1.40;1.30;;;;;;;10.48;92.34;99368.81;5068610;28;20761;-78
2023/01/08 10:00:13;;;;;;;1.40;1.30;;;;;;;10.52;93.45;99382.59;5076688;28;20225;-78
2023/01/08 10:02:40;;;;;;;1.30;1.20;;;;;;;10.34;92.30;99389.31;5077387;28;20243;-80
2023/01/08 10:05:13;;;;;;;1.30;1.20;;;;;;;10.52;93.77;99353.91;5078710;28;20269;-80
2023/01/08 10:07:40;;;;;;;1.30;1.20;;;;;;;10.54;92.75;99370.34;5079807;28;20197;-81
2023/01/08 10:10:18;;;;;;;1.37;1.27;;;;;;;10.56;91.80;99391.16;5080064;28;20241;-78
2023/01/08 10:12:45;;;;;;;2.93;1.47;;;;;;;10.61;92.53;99371.84;5076555;28;20198;-79
2023/01/08 10:15:14;;;;;;;1.30;1.20;;;;;;;10.64;92.64;99373.47;5077175;28;20246;-80
2023/01/08 10:17:45;;;;;;;1.57;1.17;;;;;;;10.70;93.47;99350.63;5077340;28;20203;-78
2023/01/08 10:20:14;;;;;;;1.30;1.20;;;;;;;10.79;93.34;99361.63;5076852;28;20580;-79
2023/01/08 10:22:41;;;;;;;1.10;1.00;;;;;;;10.79;91.64;99372.91;5076669;28;20580;-79
2023/01/08 10:25:10;;;;;;;2.77;1.27;;;;;;;10.88;92.32;99358.66;5073701;28;20266;-80
2023/01/08 10:27:46;;;;;;;1.17;1.10;;;;;;;10.90;91.14;99380.34;5068844;28;20210;-80
2023/01/08 10:30:17;;;;;;;0.90;0.90;;;;;;;10.88;90.20;99397.81;5076358;28;20237;-80
2023/01/08 10:32:48;;;;;;;1.10;1.10;;;;;;;10.84;89.45;99423.22;5077308;28;20208;-80
2023/01/08 10:35:20;;;;;;;0.80;0.80;;;;;;;10.92;91.60;99400.28;5077457;28;20317;-80
2023/01/08 10:37:49;;;;;;;1.03;1.03;;;;;;;11.01;92.11;99385.19;5066481;28;20255;-78
2023/01/08 10:40:23;;;;;;;1.80;0.80;;;;;;;11.00;90.93;99399.13;5070270;28;20263;-79
2023/01/08 10:42:51;;;;;;;0.80;0.80;;;;;;;11.00;90.99;99402.59;5075791;28;20224;-78
2023/01/08 10:45:21;;;;;;;0.90;0.90;;;;;;;11.05;90.75;99405.03;5074884;28;20201;-81
2023/01/08 10:47:50;;;;;;;0.90;0.90;;;;;;;11.11;90.46;99397.81;5071326;28;20222;-79
2023/01/08 10:50:22;;;;;;;1.00;1.00;;;;;;;10.93;89.88;99422.84;5047497;28;20272;-79
2023/01/08 10:52:53;;;;;;;1.13;0.80;;;;;;;10.97;89.26;99421.00;5047145;28;20276;-79
2023/01/08 10:55:24;;;;;;;1.00;0.90;;;;;;;10.98;88.88;99435.75;5047222;28;20213;-79
2023/01/08 10:57:57;;;;;;;0.73;0.73;;;;;;;10.82;86.58;99474.63;5048114;28;20205;-79
2023/01/08 11:00:28;;;;;;;0.57;0.53;;;;;;;10.82;87.57;99490.28;5048634;28;20277;-79
2023/01/08 11:02:56;;;;;;;0.70;0.70;;;;;;;10.71;86.40;99502.84;5048063;28;20225;-79
2023/01/08 11:05:31;;;;;;;0.77;0.77;;;;;;;10.73;86.88;99495.81;5047985;28;20207;-79
2023/01/08 11:07:59;;;;;;;1.10;0.77;;;;;;;10.81;86.97;99478.13;5047787;28;20209;-79
2023/01/08 11:10:28;;;;;;;0.70;0.70;;;;;;;10.90;87.13;99446.47;5048676;28;20240;-80
2023/01/08 11:12:56;;;;;;;1.00;0.80;;;;;;;10.94;86.76;99447.19;5048655;28;20205;-79
2023/01/08 11:15:36;;;;;;;0.87;0.80;;;;;;;10.81;86.06;99477.28;5049470;28;20259;-79
2023/01/08 11:18:10;;;;;;;0.50;0.50;;;;;;;10.85;85.70;99489.31;5049064;28;20417;-79
2023/01/08 11:20:40;;;;;;;0.90;0.60;;;;;;;10.71;84.47;99528.97;5051432;28;20252;-79
2023/01/08 11:23:18;;;;;;;0.67;0.50;;;;;;;10.69;84.90;99495.06;5051290;28;20223;-79
2023/01/08 11:25:54;;;;;;;0.50;0.50;;;;;;;10.69;85.66;99502.06;5049052;28;20250;-80
2023/01/08 11:28:29;;;;;;;0.50;0.50;;;;;;;10.74;85.41;99500.13;5049503;28;20260;-79
2023/01/08 11:31:05;;;;;;;0.60;0.60;;;;;;;10.73;84.71;99483.63;5049678;28;20236;-80
2023/01/08 11:33:34;;;;;;;0.50;0.50;;;;;;;10.76;84.08;99527.03;5053387;28;20688;-79
2023/01/08 11:36:10;;;;;;;0.60;0.60;;;;;;;10.83;85.51;99494.59;5053969;28;20213;-78
2023/01/08 11:38:36;;;;;;;0.87;0.70;;;;;;;10.81;85.77;99472.06;5054018;28;20237;-81
2023/01/08 11:41:14;;;;;;;0.60;0.60;;;;;;;10.84;84.74;99478.03;5053327;28;20848;-79
2023/01/08 11:43:55;;;;;;;1.33;0.40;;;;;;;10.67;83.01;99515.16;5055139;28;20719;-81